createdAt,value
2018-02-13T00:00:54.441Z,0.79
2018-02-13T00:03:22.409Z,0.77
2018-02-13T00:05:50.172Z,0.75
2018-02-13T00:08:17.929Z,0.71
2018-02-13T00:10:45.774Z,0.72
2018-02-13T00:13:13.515Z,0.71
2018-02-13T00:15:41.212Z,0.70
2018-02-13T00:18:08.846Z,0.65
2018-02-13T00:20:36.870Z,0.69
2018-02-13T00:23:04.832Z,0.68
2018-02-13T00:25:32.548Z,0.65
2018-02-13T00:28:00.276Z,0.65
2018-02-13T00:30:28.032Z,0.67
2018-02-13T00:32:55.819Z,0.68
2018-02-13T00:35:24.408Z,0.69
2018-02-13T00:37:52.085Z,0.68
2018-02-13T00:40:19.702Z,0.69
2018-02-13T00:42:47.359Z,0.68
2018-02-13T00:45:15.701Z,0.68
2018-02-13T00:47:43.292Z,0.67
2018-02-13T00:50:10.986Z,0.66
2018-02-13T00:52:39.446Z,0.65
2018-02-13T00:55:07.174Z,0.65
2018-02-13T00:57:34.878Z,0.63
2018-02-13T01:00:02.617Z,0.62
2018-02-13T01:02:30.410Z,0.61
2018-02-13T01:04:58.117Z,0.62
2018-02-13T01:07:25.726Z,0.61
2018-02-13T01:09:53.437Z,0.61
2018-02-13T01:12:21.253Z,0.61
2018-02-13T01:14:49.020Z,0.59
2018-02-13T01:17:16.755Z,0.61
2018-02-13T01:19:44.793Z,0.59
2018-02-13T01:22:12.451Z,0.58
2018-02-13T01:24:40.111Z,0.58
2018-02-13T01:27:07.728Z,0.55
2018-02-13T01:29:35.500Z,0.54
2018-02-13T01:32:03.145Z,0.56
2018-02-13T01:34:30.821Z,0.55
2018-02-13T01:36:58.449Z,0.56
2018-02-13T01:39:26.030Z,0.53
2018-02-13T01:41:53.739Z,0.54
2018-02-13T01:44:21.393Z,0.56
2018-02-13T01:46:49.107Z,0.55
2018-02-13T01:49:16.773Z,0.51
2018-02-13T01:51:44.373Z,0.49
2018-02-13T01:54:12.025Z,0.46
2018-02-13T01:56:39.645Z,0.45
2018-02-13T01:59:07.318Z,0.43
2018-02-13T02:01:34.959Z,0.40
2018-02-13T02:04:02.892Z,0.38
2018-02-13T02:06:30.563Z,0.37
2018-02-13T02:08:58.234Z,0.36
2018-02-13T02:11:25.920Z,0.35
2018-02-13T02:13:54.218Z,0.30
2018-02-13T02:16:21.827Z,0.28
2018-02-13T02:18:49.465Z,0.26
2018-02-13T02:21:17.144Z,0.30
2018-02-13T02:23:44.836Z,0.27
2018-02-13T02:26:12.476Z,0.26
2018-02-13T02:28:40.147Z,0.24
2018-02-13T02:31:07.874Z,0.23
2018-02-13T02:33:35.657Z,0.23
2018-02-13T02:36:03.322Z,0.23
2018-02-13T02:38:30.983Z,0.23
2018-02-13T02:40:58.676Z,0.22
2018-02-13T02:43:26.363Z,0.20
2018-02-13T02:45:54.048Z,0.20
2018-02-13T02:48:21.800Z,0.18
2018-02-13T02:50:49.487Z,0.17
2018-02-13T02:53:17.359Z,0.18
2018-02-13T02:55:45.341Z,0.17
2018-02-13T02:58:13.031Z,0.17
2018-02-13T03:00:40.749Z,0.17
2018-02-13T03:03:08.465Z,0.13
2018-02-13T03:05:36.595Z,0.15
2018-02-13T03:08:04.275Z,0.11
2018-02-13T03:10:31.890Z,0.13
2018-02-13T03:12:59.533Z,0.12
2018-02-13T03:15:27.283Z,0.12
2018-02-13T03:17:55.099Z,0.10
2018-02-13T03:20:23.438Z,0.12
2018-02-13T03:22:51.299Z,0.09
2018-02-13T03:25:18.998Z,0.08
2018-02-13T03:27:46.757Z,0.10
2018-02-13T03:30:14.743Z,0.08
2018-02-13T03:32:45.319Z,0.08
2018-02-13T03:35:14.103Z,0.11
2018-02-13T03:37:41.973Z,0.11
2018-02-13T03:40:09.851Z,0.10
2018-02-13T03:42:37.771Z,0.08
2018-02-13T03:45:05.842Z,0.08
2018-02-13T03:47:33.543Z,0.10
2018-02-13T03:50:01.177Z,0.08
2018-02-13T03:52:28.843Z,0.08
2018-02-13T03:54:56.909Z,0.09
2018-02-13T03:57:24.526Z,0.06
2018-02-13T03:59:52.439Z,0.06
2018-02-13T04:02:20.133Z,0.06
2018-02-13T04:04:47.913Z,0.07
2018-02-13T04:07:15.704Z,0.10
2018-02-13T04:09:43.312Z,0.15
2018-02-13T04:12:11.147Z,0.09
2018-02-13T04:14:38.775Z,0.10
2018-02-13T04:17:06.420Z,0.14
2018-02-13T04:19:34.038Z,0.13
2018-02-13T04:22:01.657Z,0.12
2018-02-13T04:24:29.610Z,0.11
2018-02-13T04:26:57.258Z,0.10
2018-02-13T04:29:24.887Z,0.09
2018-02-13T04:31:52.562Z,0.08
2018-02-13T04:34:20.248Z,0.09
2018-02-13T04:36:47.943Z,0.07
2018-02-13T04:39:15.601Z,0.08
2018-02-13T04:41:49.618Z,0.08
2018-02-13T04:44:18.437Z,0.08
2018-02-13T04:46:46.066Z,0.08
2018-02-13T04:49:13.735Z,0.08
2018-02-13T04:51:41.439Z,0.09
2018-02-13T04:54:09.098Z,0.10
2018-02-13T04:56:36.753Z,0.11
2018-02-13T04:59:04.673Z,0.09
2018-02-13T05:01:32.608Z,0.11
2018-02-13T05:04:00.282Z,0.09
2018-02-13T05:06:28.235Z,0.09
2018-02-13T05:08:55.858Z,0.08
2018-02-13T05:11:23.848Z,0.06
2018-02-13T05:13:51.474Z,0.06
2018-02-13T05:16:19.079Z,0.06
2018-02-13T05:18:46.760Z,0.06
2018-02-13T05:21:14.426Z,0.03
2018-02-13T05:23:42.036Z,0.06
2018-02-13T05:26:09.785Z,0.07
2018-02-13T05:28:37.429Z,0.07
2018-02-13T05:31:05.492Z,0.07
2018-02-13T05:33:33.148Z,0.05
2018-02-13T05:36:00.749Z,0.06
2018-02-13T05:38:49.233Z,0.10
2018-02-13T05:41:17.773Z,0.11
2018-02-13T05:43:45.460Z,0.09
2018-02-13T05:46:13.065Z,0.10
2018-02-13T05:48:40.670Z,0.08
2018-02-13T05:51:09.276Z,0.05
2018-02-13T05:53:37.286Z,0.07
2018-02-13T05:56:04.928Z,0.06
2018-02-13T05:58:32.979Z,0.09
2018-02-13T06:01:00.715Z,0.10
2018-02-13T06:03:28.451Z,0.10
2018-02-13T06:05:56.152Z,0.09
2018-02-13T06:08:23.861Z,0.11
2018-02-13T06:10:51.837Z,0.12
2018-02-13T06:13:19.493Z,0.11
2018-02-13T06:15:47.558Z,0.12
2018-02-13T06:18:15.598Z,0.11
2018-02-13T06:20:43.266Z,0.15
2018-02-13T06:23:10.948Z,0.13
2018-02-13T06:25:38.668Z,0.12
2018-02-13T06:28:06.363Z,0.10
2018-02-13T06:30:34.021Z,0.11
2018-02-13T06:33:02.023Z,0.13
2018-02-13T06:35:29.800Z,0.14
2018-02-13T06:37:57.439Z,0.12
2018-02-13T06:40:25.173Z,0.12
2018-02-13T06:42:52.805Z,0.13
2018-02-13T06:45:20.467Z,0.10
2018-02-13T06:47:48.595Z,0.13
2018-02-13T06:50:16.243Z,0.13
2018-02-13T06:52:43.893Z,0.10
2018-02-13T06:55:11.962Z,0.10
2018-02-13T06:57:39.601Z,0.07
2018-02-13T07:00:07.545Z,0.07
2018-02-13T07:02:35.179Z,0.08
2018-02-13T07:05:02.841Z,0.09
2018-02-13T07:07:30.553Z,0.07
2018-02-13T07:09:58.228Z,0.08
2018-02-13T07:12:25.879Z,0.07
2018-02-13T07:14:53.570Z,0.08
2018-02-13T07:17:21.589Z,0.09
2018-02-13T07:19:49.256Z,0.09
2018-02-13T07:22:16.866Z,0.11
2018-02-13T07:24:44.585Z,0.09
2018-02-13T07:27:12.252Z,0.10
2018-02-13T07:29:40.038Z,0.11
2018-02-13T07:32:07.720Z,0.15
2018-02-13T07:34:35.396Z,0.14
2018-02-13T07:37:03.071Z,0.16
2018-02-13T07:39:30.733Z,0.19
2018-02-13T07:41:58.475Z,0.21
2018-02-13T07:44:26.198Z,0.21
2018-02-13T07:46:53.832Z,0.24
2018-02-13T07:49:21.550Z,0.25
2018-02-13T07:51:49.210Z,0.29
2018-02-13T07:54:16.815Z,0.33
2018-02-13T07:56:44.527Z,0.37
2018-02-13T07:59:12.250Z,0.38
2018-02-13T08:01:39.914Z,0.42
2018-02-13T08:04:07.565Z,0.47
2018-02-13T08:06:35.274Z,0.51
2018-02-13T08:09:02.962Z,0.54
2018-02-13T08:11:30.987Z,0.58
2018-02-13T08:13:58.627Z,0.62
2018-02-13T08:16:27.016Z,0.66
2018-02-13T08:18:54.764Z,0.72
2018-02-13T08:21:22.644Z,0.74
2018-02-13T08:23:50.339Z,0.77
2018-02-13T08:26:18.184Z,0.82
2018-02-13T08:28:46.144Z,0.86
2018-02-13T08:31:13.801Z,0.88
2018-02-13T08:33:41.423Z,0.93
2018-02-13T08:36:09.078Z,0.98
2018-02-13T08:38:37.115Z,1.02
2018-02-13T08:41:04.854Z,1.05
2018-02-13T08:43:32.498Z,1.09
2018-02-13T08:46:00.205Z,1.14
2018-02-13T08:48:27.854Z,1.18
2018-02-13T08:50:55.554Z,1.22
2018-02-13T08:53:23.221Z,1.27
2018-02-13T08:55:51.149Z,1.33
2018-02-13T08:58:18.838Z,1.35
2018-02-13T09:00:46.770Z,1.40
2018-02-13T09:03:14.509Z,1.45
2018-02-13T09:05:42.146Z,1.48
2018-02-13T09:08:09.803Z,1.52
2018-02-13T09:10:37.464Z,1.58
2018-02-13T09:13:05.157Z,1.67
2018-02-13T09:15:52.719Z,1.73
2018-02-13T09:18:20.445Z,1.81
2018-02-13T09:20:48.173Z,1.85
2018-02-13T09:23:15.852Z,1.90
2018-02-13T09:25:43.486Z,1.95
2018-02-13T09:28:11.155Z,2.00
2018-02-13T09:30:38.802Z,2.04
2018-02-13T09:33:06.406Z,2.09
2018-02-13T09:35:38.455Z,2.13
2018-02-13T09:38:06.188Z,2.20
2018-02-13T09:40:33.909Z,2.27
2018-02-13T09:43:01.914Z,2.32
2018-02-13T09:45:29.653Z,2.38
2018-02-13T09:47:57.264Z,2.42
2018-02-13T09:50:24.902Z,2.44
2018-02-13T09:52:53.164Z,2.49
2018-02-13T09:55:20.910Z,2.53
2018-02-13T09:57:48.809Z,2.57
2018-02-13T10:00:16.536Z,2.63
2018-02-13T10:02:44.185Z,2.71
2018-02-13T10:05:18.944Z,2.79
2018-02-13T10:07:46.634Z,2.85
2018-02-13T10:10:14.302Z,2.92
2018-02-13T10:12:41.975Z,2.98
2018-02-13T10:15:09.677Z,3.03
2018-02-13T10:17:37.498Z,3.11
2018-02-13T10:20:05.268Z,3.15
2018-02-13T10:22:32.985Z,3.22
2018-02-13T10:25:00.783Z,3.31
2018-02-13T10:27:28.584Z,3.43
2018-02-13T10:29:56.357Z,3.56
2018-02-13T10:32:24.218Z,3.67
2018-02-13T10:34:51.964Z,3.80
2018-02-13T10:37:19.713Z,3.90
2018-02-13T10:39:47.601Z,4.02
2018-02-13T10:42:15.643Z,4.14
2018-02-13T10:44:44.625Z,4.26
2018-02-13T10:47:12.337Z,4.38
2018-02-13T10:49:40.102Z,4.51
2018-02-13T10:52:07.874Z,4.63
2018-02-13T10:54:37.962Z,4.77
2018-02-13T10:57:06.038Z,4.89
2018-02-13T10:59:33.816Z,4.96
2018-02-13T11:02:09.213Z,5.04
2018-02-13T11:04:46.083Z,5.12
2018-02-13T11:07:21.545Z,5.17
2018-02-13T11:09:49.781Z,5.20
2018-02-13T11:12:20.373Z,5.25
2018-02-13T11:14:50.736Z,5.32
2018-02-13T11:17:18.510Z,5.36
2018-02-13T11:19:46.797Z,5.47
2018-02-13T11:22:14.627Z,5.54
2018-02-13T11:24:44.563Z,5.52
2018-02-13T11:27:13.203Z,5.46
2018-02-13T11:29:43.355Z,5.49
2018-02-13T11:32:19.026Z,5.50
2018-02-13T11:34:52.955Z,5.55
2018-02-13T14:06:25.018Z,5.97
2018-02-13T14:11:45.560Z,6.02
2018-02-13T14:14:14.477Z,6.10
2018-02-13T14:16:44.244Z,6.18
2018-02-13T14:19:13.068Z,6.28
2018-02-13T14:21:42.704Z,6.31
2018-02-13T14:24:10.456Z,6.39
2018-02-13T14:26:40.327Z,6.44
2018-02-13T14:29:08.135Z,6.44
2018-02-13T14:31:35.842Z,6.45
2018-02-13T14:34:03.968Z,6.54
2018-02-13T14:36:33.609Z,6.64
2018-02-13T14:39:01.303Z,6.77
2018-02-13T14:41:29.082Z,6.81
2018-02-13T14:43:56.875Z,6.80
2018-02-13T14:46:35.826Z,6.82
2018-02-13T14:49:28.969Z,6.87
2018-02-13T14:55:00.624Z,6.74
2018-02-13T14:57:37.380Z,6.67
2018-02-13T15:00:08.759Z,6.59
2018-02-13T15:02:42.684Z,6.53
2018-02-13T15:05:13.281Z,6.44
2018-02-13T15:07:49.741Z,6.41
2018-02-13T15:10:18.492Z,6.31
2018-02-13T15:12:47.494Z,6.24
2018-02-13T15:18:28.057Z,6.02
2018-02-13T15:20:55.770Z,5.88
2018-02-13T15:23:45.575Z,5.86
2018-02-13T15:26:21.081Z,5.77
2018-02-13T15:28:55.586Z,5.72
2018-02-13T15:31:24.509Z,5.66
2018-02-13T15:38:14.975Z,5.52
2018-02-13T15:45:26.956Z,5.39
2018-02-13T15:47:57.907Z,5.36
2018-02-13T15:50:29.038Z,5.32
2018-02-13T15:53:00.411Z,5.27
2018-02-13T15:55:34.831Z,5.23
2018-02-13T15:58:09.159Z,5.20
2018-02-13T16:00:38.100Z,5.13
2018-02-13T16:03:14.991Z,5.11
2018-02-13T16:05:53.460Z,5.05
2018-02-13T16:08:23.097Z,4.98
2018-02-13T16:10:57.486Z,4.96
2018-02-13T16:13:36.356Z,4.99
2018-02-13T16:19:12.902Z,4.86
2018-02-13T16:21:41.261Z,4.80
2018-02-13T16:24:18.367Z,4.76
2018-02-13T16:26:47.184Z,4.73
2018-02-13T16:29:23.614Z,4.68
2018-02-13T16:31:51.415Z,4.66
2018-02-13T16:34:20.468Z,4.63
2018-02-13T16:36:54.049Z,4.58
2018-02-13T16:39:22.156Z,4.57
2018-02-13T16:41:50.017Z,4.57
2018-02-13T16:44:18.041Z,4.61
2018-02-13T16:46:45.860Z,4.56
2018-02-13T16:49:13.624Z,4.53
2018-02-13T16:51:42.604Z,4.51
2018-02-13T16:54:10.344Z,4.49
2018-02-13T16:56:38.016Z,4.45
2018-02-13T16:59:06.911Z,4.45
2018-02-13T17:01:34.694Z,4.43
2018-02-13T17:04:03.312Z,4.37
2018-02-13T17:06:33.201Z,4.31
2018-02-13T17:09:00.979Z,4.26
2018-02-13T17:11:29.898Z,4.22
2018-02-13T17:13:57.677Z,4.17
2018-02-13T17:16:25.354Z,4.14
2018-02-13T17:18:53.452Z,4.10
2018-02-13T17:21:21.919Z,4.04
2018-02-13T17:23:49.737Z,3.99
2018-02-13T17:26:17.465Z,3.90
2018-02-13T17:28:45.172Z,3.86
2018-02-13T17:31:12.950Z,3.83
2018-02-13T17:36:37.376Z,3.74
2018-02-13T17:39:05.424Z,3.71
2018-02-13T17:41:34.146Z,3.71
2018-02-13T17:44:01.908Z,3.65
2018-02-13T17:46:30.003Z,3.61
2018-02-13T17:48:57.720Z,3.59
2018-02-13T17:51:27.154Z,3.57
2018-02-13T17:53:54.902Z,3.54
2018-02-13T17:56:22.599Z,3.50
2018-02-13T17:58:51.514Z,3.47
2018-02-13T18:01:23.055Z,3.45
2018-02-13T18:09:48.706Z,3.35
2018-02-13T18:12:22.412Z,3.33
2018-02-13T18:14:53.758Z,3.27
2018-02-13T18:17:23.110Z,3.24
2018-02-13T18:19:51.129Z,3.22
2018-02-13T18:22:19.968Z,3.20
2018-02-13T18:24:50.230Z,3.17
2018-02-13T18:27:19.625Z,3.17
2018-02-13T18:29:47.534Z,3.16
2018-02-13T18:32:21.614Z,3.16
2018-02-13T18:34:50.388Z,3.13
2018-02-13T18:37:18.063Z,3.08
2018-02-13T18:39:46.631Z,3.06
2018-02-13T18:42:14.387Z,3.05
2018-02-13T18:44:42.161Z,3.02
2018-02-13T18:47:09.963Z,2.99
2018-02-13T18:49:37.716Z,2.95
2018-02-13T18:52:06.551Z,2.94
2018-02-13T18:54:35.230Z,2.90
2018-02-13T18:57:02.943Z,2.86
2018-02-13T18:59:30.712Z,2.84
2018-02-13T19:01:58.543Z,2.81
2018-02-13T19:04:26.339Z,2.78
2018-02-13T19:06:54.140Z,2.76
2018-02-13T19:09:21.895Z,2.68
2018-02-13T19:11:49.692Z,2.64
2018-02-13T19:14:18.221Z,2.61
2018-02-13T19:19:13.595Z,2.56
2018-02-13T19:21:41.295Z,2.57
2018-02-13T19:24:09.032Z,2.54
2018-02-13T19:26:37.921Z,2.51
2018-02-13T19:29:06.512Z,2.46
2018-02-13T19:31:34.732Z,2.46
2018-02-13T19:34:03.775Z,2.42
2018-02-13T19:36:31.528Z,2.38
2018-02-13T19:38:59.385Z,2.37
2018-02-13T19:41:27.116Z,2.36
2018-02-13T19:43:55.413Z,2.34
2018-02-13T19:46:23.227Z,2.34
2018-02-13T19:48:50.952Z,2.30
2018-02-13T19:51:19.230Z,2.28
2018-02-13T19:53:47.142Z,2.30
2018-02-13T19:56:15.452Z,2.24
2018-02-13T19:58:43.227Z,2.20
2018-02-13T20:01:11.399Z,2.17
2018-02-13T20:03:39.388Z,2.17
2018-02-13T20:06:07.219Z,2.12
2018-02-13T20:08:35.356Z,2.10
2018-02-13T20:11:03.475Z,2.08
2018-02-13T20:13:31.257Z,2.04
2018-02-13T20:15:59.126Z,2.01
2018-02-13T20:18:26.973Z,2.00
2018-02-13T20:20:54.684Z,1.97
2018-02-13T20:23:22.538Z,1.97
2018-02-13T20:25:50.408Z,1.96
2018-02-13T20:28:18.117Z,1.93
2018-02-13T20:30:46.205Z,1.91
2018-02-13T20:33:13.994Z,1.92
2018-02-13T20:35:41.781Z,1.90
2018-02-13T20:38:09.542Z,1.88
2018-02-13T20:40:37.726Z,1.86
2018-02-13T20:43:05.481Z,1.82
2018-02-13T20:45:34.381Z,1.78
2018-02-13T20:48:02.083Z,1.77
2018-02-13T20:50:29.731Z,1.77
2018-02-13T20:52:57.400Z,1.76
2018-02-13T20:55:25.151Z,1.69
2018-02-13T20:57:52.770Z,1.69
2018-02-13T21:00:20.574Z,1.69
2018-02-13T21:02:48.630Z,1.68
2018-02-13T21:05:16.292Z,1.64
2018-02-13T21:07:44.101Z,1.66
2018-02-13T21:10:11.832Z,1.63
2018-02-13T21:12:39.841Z,1.62
2018-02-13T21:15:07.598Z,1.59
2018-02-13T21:17:35.666Z,1.59
2018-02-13T21:20:03.366Z,1.56
2018-02-13T21:22:31.092Z,1.52
2018-02-13T21:24:58.711Z,1.51
2018-02-13T21:27:26.382Z,1.51
2018-02-13T21:29:54.095Z,1.48
2018-02-13T21:32:22.446Z,1.46
2018-02-13T21:37:50.564Z,1.42
2018-02-13T21:40:18.195Z,1.38
2018-02-13T21:42:45.824Z,1.36
2018-02-13T21:45:13.423Z,1.35
2018-02-13T21:47:41.117Z,1.33
2018-02-13T21:50:08.972Z,1.30
2018-02-13T21:52:36.591Z,1.25
2018-02-13T21:55:04.238Z,1.23
2018-02-13T21:57:31.826Z,1.24
2018-02-13T21:59:59.504Z,1.21
2018-02-13T22:02:27.090Z,1.18
2018-02-13T22:04:55.222Z,1.15
2018-02-13T22:07:22.840Z,1.13
2018-02-13T22:09:50.912Z,1.12
2018-02-13T22:12:19.196Z,1.10
2018-02-13T22:14:47.323Z,1.10
2018-02-13T22:17:17.106Z,1.09
2018-02-13T22:19:45.334Z,1.07
2018-02-13T22:22:13.512Z,1.05
2018-02-13T22:24:41.604Z,1.01
2018-02-13T22:27:09.341Z,1.00
2018-02-13T22:29:37.193Z,0.98
2018-02-13T22:32:05.943Z,0.97
2018-02-13T22:34:33.735Z,0.94
2018-02-13T22:37:24.948Z,0.92
2018-02-13T22:40:09.161Z,0.90
2018-02-13T22:42:37.795Z,0.89
2018-02-13T22:45:05.669Z,0.88
2018-02-13T22:47:33.426Z,0.86
2018-02-13T22:50:01.057Z,0.85
2018-02-13T22:52:28.745Z,0.84
2018-02-13T22:54:56.420Z,0.81
2018-02-13T22:57:24.131Z,0.78
2018-02-13T22:59:52.266Z,0.76
2018-02-13T23:02:19.967Z,0.72
2018-02-13T23:04:47.688Z,0.70
2018-02-13T23:07:15.370Z,0.66
2018-02-13T23:09:42.992Z,0.63
2018-02-13T23:12:10.986Z,0.65
2018-02-13T23:14:39.035Z,0.64
2018-02-13T23:17:06.687Z,0.62
2018-02-13T23:19:34.684Z,0.60
2018-02-13T23:22:02.369Z,0.59
2018-02-13T23:24:30.052Z,0.57
2018-02-13T23:26:57.708Z,0.56
2018-02-13T23:29:25.373Z,0.54
2018-02-13T23:31:53.064Z,0.52
2018-02-13T23:34:20.731Z,0.49
2018-02-13T23:36:48.408Z,0.49
2018-02-13T23:39:16.110Z,0.47
2018-02-13T23:41:43.783Z,0.47
2018-02-13T23:44:11.664Z,0.46
2018-02-13T23:46:39.335Z,0.45
2018-02-13T23:49:06.961Z,0.41
2018-02-13T23:51:34.910Z,0.41
2018-02-13T23:54:02.518Z,0.40
2018-02-13T23:56:30.433Z,0.38
2018-02-13T23:58:58.037Z,0.37
